Time;durP1;ratioP1;P1;durP2;ratioP2;P2;SDS_P1;SDS_P2;PMS_P1;PMS_P2;Temp;Humidity;BMP_temperature;BMP_pressure;BME280_temperature;BME280_humidity;BME280_pressure;Samples;Min_cycle;Max_cycle;Signal;HPM_P1;HPM_P2
2021/07/27 00:00:11;;;;;;;4.80;4.23;;;21.30;99.90;;;;;;4998528;28;20450;-88
2021/07/27 00:02:39;;;;;;;4.47;4.17;;;21.50;99.90;;;;;;4998667;28;20460;-88
2021/07/27 00:05:06;;;;;;;4.63;4.23;;;21.50;99.90;;;;;;4999938;28;20476;-87
2021/07/27 00:07:37;;;;;;;4.50;4.10;;;21.40;99.90;;;;;;4998758;28;20531;-88
2021/07/27 00:10:06;;;;;;;5.10;4.50;;;21.40;99.90;;;;;;4999533;28;20447;-87
2021/07/27 00:12:33;;;;;;;11.70;4.50;;;21.30;99.90;;;;;;4994864;28;20432;-89
2021/07/27 00:15:00;;;;;;;4.80;4.30;;;21.30;99.90;;;;;;4996868;28;20472;-89
2021/07/27 00:17:28;;;;;;;5.43;4.70;;;21.10;99.90;;;;;;4999692;28;20464;-89
2021/07/27 00:19:56;;;;;;;4.70;4.30;;;21.10;99.90;;;;;;4996934;28;20463;-87
2021/07/27 00:22:23;;;;;;;5.17;4.67;;;21.10;99.90;;;;;;4985855;28;20447;-88
2021/07/27 00:24:52;;;;;;;5.27;4.80;;;21.00;99.90;;;;;;4988765;28;20480;-90
2021/07/27 00:27:19;;;;;;;5.70;3.97;;;21.00;99.90;;;;;;4991221;28;20473;-87
2021/07/27 00:29:46;;;;;;;4.70;4.10;;;20.90;99.90;;;;;;4977304;28;20472;-87
2021/07/27 00:32:12;;;;;;;3.80;3.50;;;20.70;99.90;;;;;;4978682;28;20481;-87
2021/07/27 00:34:40;;;;;;;7.17;3.60;;;20.80;99.90;;;;;;4996743;28;21000;-88
2021/07/27 00:37:16;;;;;;;4.63;3.90;;;20.70;99.90;;;;;;4988589;28;20456;-87
2021/07/27 00:39:43;;;;;;;4.87;4.37;;;20.70;99.90;;;;;;4974546;28;20539;-87
2021/07/27 00:42:11;;;;;;;4.90;4.40;;;20.60;99.90;;;;;;4979987;28;20448;-86
2021/07/27 00:44:38;;;;;;;4.20;3.90;;;20.50;99.90;;;;;;4978839;28;20487;-87
2021/07/27 00:47:05;;;;;;;4.67;3.97;;;20.50;99.90;;;;;;4978740;28;20472;-88
2021/07/27 00:49:32;;;;;;;7.07;4.40;;;20.50;99.90;;;;;;4978895;28;20527;-88
2021/07/27 00:51:59;;;;;;;5.67;5.03;;;20.70;99.90;;;;;;4977962;28;20527;-88
2021/07/27 00:54:27;;;;;;;5.90;4.50;;;20.80;99.90;;;;;;4982222;28;20547;-88
2021/07/27 00:56:54;;;;;;;4.43;3.80;;;20.80;99.90;;;;;;4978486;28;20467;-87
2021/07/27 00:59:21;;;;;;;6.33;4.63;;;20.70;99.90;;;;;;4978671;28;20480;-88
2021/07/27 01:01:48;;;;;;;8.03;4.33;;;20.60;99.90;;;;;;4978699;28;20544;-87
2021/07/27 01:04:16;;;;;;;5.23;4.43;;;20.60;99.90;;;;;;4982807;28;20472;-88
2021/07/27 01:06:56;;;;;;;4.97;4.47;;;20.60;99.90;;;;;;4983418;28;20412;-86
2021/07/27 01:09:31;;;;;;;5.37;4.80;;;20.50;99.90;;;;;;4964697;28;20506;-87
2021/07/27 01:12:00;;;;;;;5.83;4.00;;;20.80;99.90;;;;;;4981289;28;20502;-88
2021/07/27 01:14:27;;;;;;;4.50;4.07;;;20.70;99.90;;;;;;4978504;28;20581;-87
2021/07/27 01:16:54;;;;;;;7.40;5.20;;;20.80;99.90;;;;;;4976859;28;20461;-88
2021/07/27 01:43:50;;;;;;;5.27;4.60;;;20.80;99.90;;;;;;4994742;28;20547;-91
2021/07/27 01:46:23;;;;;;;6.23;4.27;;;20.80;99.90;;;;;;4995783;28;20452;-90
2021/07/27 01:48:53;;;;;;;7.67;4.80;;;20.90;99.90;;;;;;4996152;28;20483;-90
2021/07/27 01:51:19;;;;;;;6.37;4.97;;;20.90;99.90;;;;;;4986483;28;20455;-87
2021/07/27 01:53:48;;;;;;;5.20;4.80;;;20.80;99.90;;;;;;4979971;28;20467;-87
2021/07/27 01:56:16;;;;;;;5.23;4.73;;;20.70;99.90;;;;;;4979971;28;20459;-87
2021/07/27 01:58:46;;;;;;;5.40;4.90;;;20.70;99.90;;;;;;4979627;28;20487;-89
2021/07/27 02:01:13;;;;;;;6.00;5.40;;;20.70;99.90;;;;;;4990477;28;20547;-90
2021/07/27 02:03:41;;;;;;;5.93;5.43;;;20.50;99.90;;;;;;4996762;28;20464;-90
2021/07/27 02:06:08;;;;;;;6.90;5.60;;;20.40;99.90;;;;;;4997303;28;20440;-90
2021/07/27 02:08:35;;;;;;;5.60;5.10;;;20.40;99.90;;;;;;4997772;28;20555;-89
2021/07/27 02:11:04;;;;;;;6.20;5.13;;;20.50;99.90;;;;;;4988354;28;20531;-88
2021/07/27 02:13:44;;;;;;;5.27;4.87;;;20.40;99.90;;;;;;4976863;28;20456;-87
2021/07/27 02:16:11;;;;;;;5.90;4.37;;;20.10;99.90;;;;;;4979883;28;20459;-88
2021/07/27 02:18:38;;;;;;;5.37;4.50;;;20.20;99.90;;;;;;4980778;28;20530;-87
2021/07/27 02:21:05;;;;;;;4.63;3.90;;;20.30;99.90;;;;;;4983117;28;20492;-85
2021/07/27 02:23:34;;;;;;;5.00;4.60;;;20.20;99.90;;;;;;4991219;28;20469;-90
2021/07/27 02:26:02;;;;;;;5.57;4.90;;;20.20;99.90;;;;;;4984133;28;20436;-88
2021/07/27 02:28:29;;;;;;;5.37;3.90;;;20.10;99.90;;;;;;4994259;28;20504;-88
2021/07/27 02:31:00;;;;;;;4.70;4.30;;;20.10;99.90;;;;;;5003854;28;20460;-90
2021/07/27 02:33:29;;;;;;;4.33;4.03;;;20.00;99.90;;;;;;4997903;28;20442;-88
2021/07/27 02:35:56;;;;;;;7.50;4.40;;;20.00;99.90;;;;;;4993648;28;20445;-88
2021/07/27 02:38:23;;;;;;;6.90;4.63;;;20.00;99.90;;;;;;4996000;28;20528;-86
2021/07/27 02:40:50;;;;;;;4.60;4.03;;;20.00;99.90;;;;;;4997175;28;20468;-88
2021/07/27 02:43:17;;;;;;;4.10;3.70;;;20.00;99.90;;;;;;4996615;28;20480;-88
2021/07/27 02:45:43;;;;;;;4.90;3.83;;;20.00;99.90;;;;;;4999968;28;20476;-89
2021/07/27 02:48:10;;;;;;;4.40;3.90;;;19.90;99.90;;;;;;5001801;28;20470;-89
2021/07/27 02:50:36;;;;;;;4.00;3.60;;;20.00;99.90;;;;;;4998861;28;20464;-86
2021/07/27 02:53:03;;;;;;;4.20;3.90;;;20.10;99.90;;;;;;5002455;28;20499;-89
2021/07/27 02:55:30;;;;;;;4.70;4.10;;;20.00;99.90;;;;;;5001760;28;20515;-89
2021/07/27 02:57:58;;;;;;;4.80;4.17;;;20.00;99.90;;;;;;5000996;28;20506;-91
2021/07/27 03:00:25;;;;;;;4.53;4.13;;;20.10;99.90;;;;;;4998740;28;20464;-90
2021/07/27 03:02:54;;;;;;;3.87;3.37;;;20.00;99.90;;;;;;5000015;28;20447;-91
2021/07/27 03:05:22;;;;;;;4.63;4.23;;;19.90;99.90;;;;;;4999429;28;20496;-90
2021/07/27 03:07:51;;;;;;;4.20;3.90;;;20.10;99.90;;;;;;4999664;28;20474;-89
2021/07/27 03:10:19;;;;;;;4.00;3.70;;;19.90;99.90;;;;;;4985816;28;20460;-89
2021/07/27 03:12:53;;;;;;;3.93;3.53;;;19.90;99.90;;;;;;4982112;28;20452;-88
2021/07/27 03:15:25;;;;;;;4.03;3.73;;;19.90;99.90;;;;;;4982964;28;20447;-88
2021/07/27 03:17:57;;;;;;;4.73;4.33;;;19.80;99.90;;;;;;4963904;28;20467;-89
2021/07/27 03:20:27;;;;;;;5.00;4.60;;;19.90;99.90;;;;;;4974130;28;20456;-87
2021/07/27 03:22:55;;;;;;;4.40;4.00;;;19.80;99.90;;;;;;4979232;28;20472;-88
2021/07/27 03:25:23;;;;;;;4.87;4.17;;;19.70;99.90;;;;;;4983285;28;21000;-88
2021/07/27 03:27:51;;;;;;;4.50;4.10;;;19.70;99.90;;;;;;4972178;28;20483;-88
2021/07/27 03:30:20;;;;;;;6.00;4.80;;;19.70;99.90;;;;;;4963860;29;20955;-87
2021/07/27 03:32:49;;;;;;;4.40;4.00;;;19.80;99.90;;;;;;4964328;28;20447;-88
2021/07/27 03:35:20;;;;;;;4.70;4.30;;;19.60;99.90;;;;;;4965035;29;20444;-87
2021/07/27 03:37:47;;;;;;;8.13;5.00;;;19.90;99.90;;;;;;4986893;28;20480;-87
2021/07/27 03:40:14;;;;;;;6.03;4.60;;;20.00;99.90;;;;;;4997786;28;20532;-87
2021/07/27 03:42:42;;;;;;;4.90;4.50;;;20.00;99.90;;;;;;4999887;28;20644;-89
2021/07/27 03:45:10;;;;;;;6.00;5.40;;;20.00;99.90;;;;;;4999482;28;20539;-89
2021/07/27 03:47:37;;;;;;;5.70;5.20;;;20.10;99.90;;;;;;4999709;28;20500;-90
2021/07/27 03:50:04;;;;;;;5.07;4.67;;;20.00;99.90;;;;;;4996454;28;20448;-90
2021/07/27 03:52:33;;;;;;;5.40;4.90;;;19.90;99.90;;;;;;4982211;28;20527;-90
2021/07/27 03:55:00;;;;;;;6.13;4.67;;;20.00;99.90;;;;;;4993087;28;20487;-89
2021/07/27 03:57:26;;;;;;;5.17;4.77;;;19.90;99.90;;;;;;5008060;28;20463;-88
2021/07/27 03:59:54;;;;;;;5.13;4.70;;;19.80;99.90;;;;;;4997013;28;20519;-89
2021/07/27 04:02:20;;;;;;;5.23;4.73;;;19.60;99.90;;;;;;4997992;28;20476;-88
2021/07/27 04:04:47;;;;;;;5.07;4.47;;;19.80;99.90;;;;;;4987556;28;20488;-89
2021/07/27 04:07:16;;;;;;;6.40;5.03;;;19.80;99.90;;;;;;4971703;28;20461;-87
2021/07/27 04:09:43;;;;;;;4.83;4.43;;;19.80;99.90;;;;;;4978583;28;20453;-88
2021/07/27 04:12:10;;;;;;;4.97;4.50;;;20.00;99.90;;;;;;4978376;28;20645;-88
2021/07/27 04:14:37;;;;;;;5.60;5.10;;;20.00;99.90;;;;;;4986976;28;20762;-90
2021/07/27 04:17:04;;;;;;;5.67;4.27;;;20.10;99.90;;;;;;4997725;28;20486;-89
2021/07/27 04:19:31;;;;;;;5.30;4.80;;;20.00;99.90;;;;;;4998335;28;20482;-89
2021/07/27 04:21:58;;;;;;;4.70;4.30;;;19.90;99.90;;;;;;4983891;28;20520;-89
2021/07/27 04:24:28;;;;;;;5.40;4.53;;;19.80;99.90;;;;;;4983298;28;20475;-88
2021/07/27 04:26:57;;;;;;;4.57;4.17;;;19.70;99.90;;;;;;4972260;28;20448;-88
2021/07/27 04:29:24;;;;;;;4.80;4.40;;;19.90;99.90;;;;;;4977037;28;20514;-88
2021/07/27 04:31:52;;;;;;;4.47;4.07;;;20.00;99.90;;;;;;4972387;28;20489;-87
2021/07/27 04:34:19;;;;;;;4.90;4.50;;;19.90;99.90;;;;;;4979308;28;20471;-88
2021/07/27 04:36:52;;;;;;;4.93;4.47;;;20.00;99.90;;;;;;4980414;28;20483;-89
2021/07/27 04:39:26;;;;;;;5.23;4.77;;;19.90;99.90;;;;;;4980397;28;20469;-89
2021/07/27 04:41:53;;;;;;;4.90;4.40;;;20.00;99.90;;;;;;4979870;28;20483;-89
2021/07/27 04:44:25;;;;;;;6.17;5.17;;;20.00;99.90;;;;;;4979154;28;20515;-88
2021/07/27 04:46:53;;;;;;;5.53;4.97;;;20.00;99.90;;;;;;4979032;28;20934;-88
2021/07/27 04:49:23;;;;;;;5.80;4.13;;;20.00;99.90;;;;;;4984358;28;20476;-89
2021/07/27 04:52:00;;;;;;;4.90;4.43;;;19.80;99.90;;;;;;4967818;28;20452;-89
2021/07/27 04:54:30;;;;;;;5.20;4.63;;;20.10;99.90;;;;;;4995449;28;20499;-90
2021/07/27 04:56:59;;;;;;;6.40;5.80;;;20.30;99.90;;;;;;4986376;28;20446;-90
2021/07/27 04:59:26;;;;;;;5.17;4.70;;;20.40;99.90;;;;;;4996768;28;20505;-89
2021/07/27 05:01:53;;;;;;;5.23;4.73;;;20.40;99.90;;;;;;4977571;28;20425;-89
2021/07/27 05:04:21;;;;;;;5.10;4.60;;;20.40;99.90;;;;;;4977715;28;20448;-90
2021/07/27 05:06:48;;;;;;;8.23;5.63;;;20.40;99.90;;;;;;4995046;28;20464;-88
2021/07/27 05:09:15;;;;;;;7.93;5.80;;;20.30;99.90;;;;;;4997743;28;20464;-90
2021/07/27 05:11:44;;;;;;;5.93;5.23;;;20.30;99.90;;;;;;4998121;28;20504;-91
2021/07/27 05:14:11;;;;;;;8.10;5.70;;;20.30;99.90;;;;;;4999403;28;20466;-89
2021/07/27 05:16:38;;;;;;;8.50;5.50;;;20.20;99.90;;;;;;5123019;23;20508;-89
2021/07/27 05:19:08;;;;;;;5.70;5.20;;;20.10;99.90;;;;;;4978721;28;20519;-88
2021/07/27 05:21:37;;;;;;;8.37;5.23;;;20.10;99.90;;;;;;4957865;28;20516;-89
2021/07/27 05:24:04;;;;;;;6.70;5.53;;;20.10;99.90;;;;;;4959966;29;20477;-90
2021/07/27 05:26:32;;;;;;;7.03;5.47;;;20.10;99.90;;;;;;4959413;28;20484;-89
2021/07/27 05:28:58;;;;;;;6.00;5.50;;;20.30;99.90;;;;;;4976197;28;20472;-90
2021/07/27 05:31:25;;;;;;;6.20;5.60;;;20.30;99.90;;;;;;4974835;28;20445;-89
2021/07/27 05:33:52;;;;;;;6.33;5.73;;;20.40;99.90;;;;;;4945960;29;20445;-90
2021/07/27 05:36:19;;;;;;;7.03;6.27;;;20.50;99.90;;;;;;4960680;28;20457;-87
2021/07/27 05:38:46;;;;;;;8.40;6.27;;;20.50;99.90;;;;;;4938211;29;20532;-88
2021/07/27 05:41:12;;;;;;;10.30;6.30;;;20.50;99.90;;;;;;4941998;29;20468;-88
2021/07/27 05:43:39;;;;;;;7.37;6.30;;;20.60;99.90;;;;;;4961041;29;20663;-89
2021/07/27 05:46:06;;;;;;;6.70;6.07;;;20.70;99.90;;;;;;4944767;29;20480;-88
2021/07/27 05:48:34;;;;;;;7.37;6.77;;;20.70;99.90;;;;;;4952032;28;20492;-89
2021/07/27 05:51:03;;;;;;;6.97;6.20;;;20.50;99.90;;;;;;4960462;29;20445;-88
2021/07/27 05:53:30;;;;;;;8.87;6.57;;;20.70;99.90;;;;;;4945275;29;20444;-89
2021/07/27 05:56:00;;;;;;;6.10;5.50;;;20.70;99.90;;;;;;4955531;29;20482;-88
2021/07/27 05:58:27;;;;;;;7.47;6.77;;;20.80;99.90;;;;;;4945571;29;20569;-88
2021/07/27 06:01:07;;;;;;;8.37;6.67;;;20.80;99.90;;;;;;4947504;29;20488;-88
2021/07/27 06:03:34;;;;;;;7.10;6.50;;;20.60;99.90;;;;;;4945788;29;20556;-88
2021/07/27 06:06:03;;;;;;;6.23;5.27;;;20.60;99.90;;;;;;4949909;29;20512;-89
2021/07/27 06:08:30;;;;;;;6.07;5.47;;;20.70;99.90;;;;;;4945533;29;20559;-89
2021/07/27 06:10:57;;;;;;;7.47;6.70;;;20.80;99.90;;;;;;4944800;29;20453;-89
2021/07/27 06:13:24;;;;;;;6.60;6.10;;;20.80;99.90;;;;;;4934764;29;20461;-88
2021/07/27 06:15:51;;;;;;;6.87;6.27;;;20.80;99.90;;;;;;4949507;29;20495;-88
2021/07/27 06:18:19;;;;;;;7.97;6.17;;;20.80;99.90;;;;;;4944728;29;20647;-88
2021/07/27 06:20:46;;;;;;;7.17;6.57;;;20.90;99.90;;;;;;4943615;29;20460;-88
2021/07/27 06:23:14;;;;;;;8.70;5.83;;;21.10;99.90;;;;;;4951628;28;20452;-88
2021/07/27 06:25:42;;;;;;;6.30;5.80;;;21.20;99.90;;;;;;4964001;28;20928;-87
2021/07/27 06:28:09;;;;;;;7.63;6.83;;;21.10;99.90;;;;;;4981338;28;20471;-89
2021/07/27 06:30:35;;;;;;;6.70;6.10;;;21.20;99.90;;;;;;4963647;28;20460;-89
2021/07/27 06:33:03;;;;;;;6.03;5.53;;;21.10;99.90;;;;;;4963320;28;20459;-89
2021/07/27 06:35:30;;;;;;;7.10;6.40;;;21.00;99.90;;;;;;4962302;28;21101;-89
2021/07/27 06:37:56;;;;;;;7.40;6.17;;;21.00;99.90;;;;;;4948194;29;20511;-89
2021/07/27 06:40:23;;;;;;;10.57;6.67;;;21.10;99.90;;;;;;4943246;29;21046;-88
2021/07/27 06:42:50;;;;;;;7.70;6.90;;;21.00;99.90;;;;;;4960907;28;20504;-88
2021/07/27 06:45:18;;;;;;;8.23;6.03;;;20.90;99.90;;;;;;4944815;29;20906;-88
2021/07/27 06:47:44;;;;;;;8.57;7.70;;;21.10;99.90;;;;;;4943954;29;20479;-89
2021/07/27 06:50:12;;;;;;;6.90;6.27;;;21.30;99.90;;;;;;4960349;28;20457;-88
2021/07/27 06:52:39;;;;;;;6.83;5.67;;;21.30;99.90;;;;;;4924447;29;20456;-88
2021/07/27 06:55:06;;;;;;;6.63;5.93;;;21.20;99.90;;;;;;4938846;29;20540;-88
2021/07/27 06:57:33;;;;;;;7.87;6.10;;;21.00;99.90;;;;;;4962580;29;20453;-88
2021/07/27 07:00:00;;;;;;;6.40;5.90;;;20.90;99.90;;;;;;4961713;29;20471;-88
2021/07/27 07:02:29;;;;;;;6.67;6.03;;;20.80;99.90;;;;;;4964136;29;20519;-89
2021/07/27 07:04:57;;;;;;;6.23;5.63;;;20.70;99.90;;;;;;4958578;28;20480;-87
2021/07/27 07:07:24;;;;;;;6.50;5.73;;;20.70;99.90;;;;;;4958068;28;20480;-89
2021/07/27 07:09:52;;;;;;;7.40;6.40;;;21.20;99.90;;;;;;4955371;28;20489;-89
2021/07/27 07:12:19;;;;;;;7.50;6.30;;;21.30;99.90;;;;;;4948810;29;20461;-88
2021/07/27 07:14:46;;;;;;;7.60;5.53;;;21.40;99.90;;;;;;4965413;28;20488;-89
2021/07/27 07:17:14;;;;;;;10.90;6.40;;;21.30;99.90;;;;;;5112769;23;20641;-88
2021/07/27 07:19:54;;;;;;;7.27;6.57;;;21.30;99.90;;;;;;4981918;28;20440;-90
2021/07/27 07:22:21;;;;;;;7.00;6.30;;;21.30;99.90;;;;;;4971474;28;20452;-92
2021/07/27 07:24:49;;;;;;;6.60;6.00;;;21.10;99.90;;;;;;4960485;28;20456;-90
2021/07/27 07:27:16;;;;;;;6.40;5.87;;;21.40;99.90;;;;;;4971905;28;20463;-89
2021/07/27 07:29:43;;;;;;;7.33;6.63;;;21.40;99.90;;;;;;4993413;28;20882;-89
2021/07/27 07:32:10;;;;;;;9.60;7.07;;;21.40;99.90;;;;;;4977154;28;20542;-90
2021/07/27 07:34:37;;;;;;;6.37;5.77;;;21.60;99.90;;;;;;4970289;28;20456;-89
2021/07/27 07:37:06;;;;;;;7.63;6.13;;;21.90;99.90;;;;;;4970786;28;20541;-88
2021/07/27 07:39:36;;;;;;;7.80;6.10;;;22.20;99.90;;;;;;4971006;28;20530;-88
2021/07/27 07:42:16;;;;;;;6.47;5.87;;;22.40;99.30;;;;;;4972199;28;20463;-89
2021/07/27 07:44:43;;;;;;;7.70;6.77;;;22.90;98.80;;;;;;4976252;28;20474;-89
2021/07/27 07:47:10;;;;;;;6.60;5.90;;;22.90;98.30;;;;;;5002663;28;20472;-88
2021/07/27 07:49:37;;;;;;;5.93;5.33;;;22.90;98.10;;;;;;4971028;28;20547;-89
2021/07/27 07:52:04;;;;;;;7.00;6.30;;;23.20;97.70;;;;;;5008537;28;20471;-89
2021/07/27 07:54:33;;;;;;;8.70;6.10;;;23.40;97.50;;;;;;4980463;28;20465;-90
2021/07/27 07:57:03;;;;;;;7.73;6.20;;;23.40;97.50;;;;;;4977424;28;20456;-90
2021/07/27 07:59:34;;;;;;;7.13;6.40;;;23.80;96.60;;;;;;4984610;28;20507;-90
2021/07/27 08:02:01;;;;;;;6.40;5.80;;;23.70;96.40;;;;;;4987624;28;20456;-90
2021/07/27 08:04:29;;;;;;;6.93;6.33;;;23.60;96.10;;;;;;4968528;28;20479;-89
2021/07/27 08:06:57;;;;;;;6.47;5.87;;;23.70;96.50;;;;;;4968159;28;20530;-89
2021/07/27 08:09:24;;;;;;;10.20;5.70;;;24.60;95.80;;;;;;4981608;28;20516;-88
2021/07/27 08:11:51;;;;;;;7.33;6.57;;;24.80;95.00;;;;;;4961524;28;20446;-88
2021/07/27 08:14:19;;;;;;;9.20;6.20;;;24.60;95.00;;;;;;4980567;28;20455;-88
2021/07/27 08:16:49;;;;;;;7.03;6.33;;;24.80;94.50;;;;;;4967401;28;20472;-89
2021/07/27 08:19:17;;;;;;;6.40;5.80;;;24.80;94.60;;;;;;4970706;28;20514;-87
2021/07/27 08:21:43;;;;;;;6.70;6.10;;;25.20;94.10;;;;;;4974023;28;20517;-88
2021/07/27 08:24:11;;;;;;;7.13;6.53;;;25.80;92.70;;;;;;4983436;28;20534;-89
2021/07/27 08:26:37;;;;;;;7.97;6.30;;;25.70;92.30;;;;;;4988682;28;20476;-88
2021/07/27 08:29:04;;;;;;;7.07;6.47;;;26.10;91.80;;;;;;4993819;28;20522;-88
2021/07/27 08:31:31;;;;;;;7.60;6.90;;;25.60;92.20;;;;;;4989683;28;20539;-89
2021/07/27 08:33:58;;;;;;;6.60;5.90;;;25.80;92.40;;;;;;4984047;28;20543;-88
2021/07/27 08:36:25;;;;;;;7.50;6.80;;;26.50;91.60;;;;;;4966547;28;20491;-88
2021/07/27 08:38:55;;;;;;;6.57;5.97;;;26.90;90.10;;;;;;4977882;28;20540;-91
2021/07/27 08:41:27;;;;;;;7.37;6.40;;;26.50;90.90;;;;;;4987151;28;20530;-89
2021/07/27 08:43:54;;;;;;;9.47;7.00;;;25.70;92.10;;;;;;4962835;28;20459;-89
2021/07/27 08:46:25;;;;;;;7.43;6.73;;;25.00;93.40;;;;;;4954828;28;20530;-89
2021/07/27 08:48:52;;;;;;;10.20;6.50;;;24.70;94.30;;;;;;4963095;28;20472;-89
2021/07/27 08:51:23;;;;;;;8.27;7.47;;;24.10;95.20;;;;;;4989494;28;20451;-88
2021/07/27 08:53:50;;;;;;;8.07;7.27;;;24.00;96.10;;;;;;4990836;28;20507;-89
2021/07/27 08:56:17;;;;;;;8.50;7.77;;;24.60;95.10;;;;;;4972316;28;20455;-89
2021/07/27 08:58:44;;;;;;;8.00;7.20;;;25.70;93.60;;;;;;4966159;28;20836;-87
2021/07/27 09:01:11;;;;;;;7.30;6.63;;;26.80;91.50;;;;;;4996996;28;20447;-90
2021/07/27 09:03:48;;;;;;;8.23;6.77;;;28.20;88.80;;;;;;5000021;28;20531;-90
2021/07/27 09:06:15;;;;;;;6.93;6.33;;;28.70;85.40;;;;;;4977253;28;20571;-90
2021/07/27 09:08:42;;;;;;;7.70;6.87;;;29.40;82.90;;;;;;4992645;28;20535;-89
2021/07/27 09:11:12;;;;;;;7.83;7.10;;;28.80;81.70;;;;;;5004034;28;20452;-89
2021/07/27 09:13:59;;;;;;;7.80;7.10;;;27.50;86.00;;;;;;5005855;28;20856;-90
2021/07/27 09:16:26;;;;;;;7.10;6.40;;;26.50;90.70;;;;;;4984138;28;21185;-90
2021/07/27 09:19:01;;;;;;;8.37;7.57;;;26.60;90.40;;;;;;4994862;28;20558;-88
2021/07/27 09:21:28;;;;;;;8.07;7.27;;;26.00;91.60;;;;;;4956154;28;20536;-89
2021/07/27 09:23:55;;;;;;;8.03;7.23;;;25.70;92.10;;;;;;4974522;28;20460;-88
2021/07/27 09:26:41;;;;;;;7.40;6.70;;;25.50;92.80;;;;;;4977112;28;20470;-88
2021/07/27 09:29:08;;;;;;;8.17;6.43;;;24.90;94.00;;;;;;4994276;28;20494;-90
2021/07/27 09:31:35;;;;;;;7.73;7.00;;;24.40;95.00;;;;;;4989776;28;20456;-90
2021/07/27 09:34:11;;;;;;;7.17;6.53;;;24.40;95.50;;;;;;4992400;28;20508;-87
2021/07/27 09:36:38;;;;;;;7.80;7.10;;;24.30;95.30;;;;;;4996179;28;20443;-90
2021/07/27 09:39:05;;;;;;;7.00;6.40;;;24.40;95.50;;;;;;4979982;28;20546;-89
2021/07/27 09:41:32;;;;;;;7.87;7.17;;;24.10;95.80;;;;;;4996780;28;20448;-88
2021/07/27 09:43:59;;;;;;;6.97;6.37;;;23.60;96.90;;;;;;4986848;28;20459;-87
2021/07/27 09:46:27;;;;;;;7.67;6.87;;;23.50;98.00;;;;;;4977325;28;20475;-87
2021/07/27 09:48:54;;;;;;;7.23;6.53;;;24.20;96.70;;;;;;4970358;28;20499;-89
2021/07/27 09:51:21;;;;;;;6.63;6.13;;;24.70;95.70;;;;;;4996900;28;21012;-88
2021/07/27 09:53:48;;;;;;;6.50;5.83;;;25.90;93.80;;;;;;5011346;28;20439;-89
2021/07/27 09:56:15;;;;;;;6.87;6.30;;;26.10;92.60;;;;;;4988993;28;20459;-88
2021/07/27 09:58:42;;;;;;;6.80;6.17;;;25.70;93.10;;;;;;5001899;28;20542;-89
2021/07/27 10:01:22;;;;;;;6.90;6.30;;;25.50;93.30;;;;;;4989357;28;20458;-88
2021/07/27 10:03:53;;;;;;;7.50;6.80;;;25.50;93.30;;;;;;4979326;28;20443;-88
2021/07/27 10:06:36;;;;;;;7.27;6.43;;;25.20;93.50;;;;;;4979330;28;20468;-89
2021/07/27 10:09:04;;;;;;;8.00;7.20;;;25.50;94.00;;;;;;4972974;28;20499;-87
2021/07/27 10:11:44;;;;;;;8.00;6.37;;;25.80;92.60;;;;;;4962720;28;20469;-85
2021/07/27 10:14:15;;;;;;;6.33;5.77;;;26.20;92.90;;;;;;4980726;28;20520;-89
2021/07/27 10:16:48;;;;;;;7.37;6.53;;;27.20;90.60;;;;;;4994226;28;20442;-88
2021/07/27 10:19:22;;;;;;;7.47;6.73;;;26.90;90.30;;;;;;4999623;28;20479;-87
2021/07/27 10:22:09;;;;;;;6.67;6.10;;;26.20;91.60;;;;;;4980116;28;20464;-89
2021/07/27 10:24:43;;;;;;;7.70;7.00;;;25.30;92.60;;;;;;4998034;28;20443;-90
2021/07/27 10:27:16;;;;;;;7.43;6.63;;;25.10;93.30;;;;;;4997105;28;20495;-89
2021/07/27 10:29:43;;;;;;;7.70;7.10;;;24.80;93.80;;;;;;4977989;28;20473;-89
2021/07/27 10:32:12;;;;;;;7.47;6.77;;;25.00;93.90;;;;;;4978733;28;20507;-90
2021/07/27 10:34:41;;;;;;;9.20;7.40;;;25.20;93.80;;;;;;4980467;28;20447;-90
2021/07/27 10:37:09;;;;;;;7.43;6.70;;;25.40;93.80;;;;;;4980065;28;20444;-90
2021/07/27 10:40:07;;;;;;;7.47;6.60;;;25.60;93.20;;;;;;5002453;28;20551;-90
2021/07/27 10:42:38;;;;;;;8.33;6.80;;;25.10;94.00;;;;;;4988677;28;20460;-87
2021/07/27 10:45:26;;;;;;;9.07;8.27;;;25.10;94.40;;;;;;4987313;28;20470;-89
2021/07/27 10:47:54;;;;;;;7.73;6.80;;;24.70;94.80;;;;;;5003250;28;21007;-89
2021/07/27 10:50:28;;;;;;;8.23;7.33;;;24.50;95.20;;;;;;4990653;28;20504;-89
2021/07/27 10:53:06;;;;;;;7.27;6.57;;;24.90;94.80;;;;;;4984042;28;20446;-89
2021/07/27 10:55:33;;;;;;;7.20;6.50;;;25.40;94.00;;;;;;4988828;28;20462;-90
2021/07/27 10:58:04;;;;;;;6.87;6.27;;;26.00;93.20;;;;;;4969126;28;20493;-89
2021/07/27 11:00:33;;;;;;;7.53;6.93;;;27.40;91.20;;;;;;4979795;28;20440;-89
2021/07/27 11:03:02;;;;;;;6.57;6.07;;;28.50;87.10;;;;;;4993386;28;20498;-90
2021/07/27 11:05:31;;;;;;;7.30;6.60;;;28.60;85.30;;;;;;4977028;28;20436;-90
2021/07/27 11:07:57;;;;;;;5.30;4.90;;;28.30;86.80;;;;;;4998324;28;20493;-90
2021/07/27 11:10:26;;;;;;;5.73;5.10;;;28.60;76.20;;;;;;4985744;28;20431;-88
2021/07/27 11:12:56;;;;;;;5.90;5.50;;;28.70;73.20;;;;;;4997941;28;20456;-89
2021/07/27 11:15:26;;;;;;;5.27;4.87;;;29.00;68.30;;;;;;4973578;28;20483;-90
2021/07/27 11:17:58;;;;;;;5.03;4.63;;;29.00;66.70;;;;;;4970058;28;20567;-89
2021/07/27 11:20:35;;;;;;;5.20;4.70;;;29.30;63.70;;;;;;4997044;28;20538;-89
2021/07/27 11:23:14;;;;;;;6.00;5.50;;;29.10;62.60;;;;;;4979788;28;20446;-88
2021/07/27 11:25:42;;;;;;;6.73;5.63;;;29.70;59.60;;;;;;4987014;28;20458;-89
2021/07/27 11:28:15;;;;;;;5.37;4.40;;;28.90;61.10;;;;;;5004585;28;20559;-88
2021/07/27 11:30:43;;;;;;;5.97;5.47;;;29.20;62.50;;;;;;4972077;28;20506;-88
2021/07/27 11:33:20;;;;;;;5.60;5.10;;;29.00;62.70;;;;;;4974274;28;20964;-91
2021/07/27 11:35:48;;;;;;;5.60;5.20;;;28.80;62.90;;;;;;4987328;28;20511;-89
2021/07/27 11:38:23;;;;;;;5.27;4.77;;;28.90;63.10;;;;;;4989338;28;20488;-89
2021/07/27 11:41:04;;;;;;;5.80;5.40;;;29.10;62.10;;;;;;4976735;28;20514;-89
2021/07/27 11:43:42;;;;;;;5.50;5.10;;;29.50;62.20;;;;;;4987718;28;20491;-89
2021/07/27 11:46:19;;;;;;;6.70;6.10;;;29.20;63.70;;;;;;4952191;28;20487;-89
2021/07/27 11:48:53;;;;;;;6.13;5.57;;;29.10;65.00;;;;;;4979639;28;20831;-89
2021/07/27 11:51:33;;;;;;;6.40;5.80;;;29.30;64.10;;;;;;4986401;28;20462;-89
2021/07/27 11:54:01;;;;;;;6.80;6.20;;;29.10;64.40;;;;;;4973812;28;20868;-87
2021/07/27 11:56:28;;;;;;;5.00;4.70;;;29.10;64.50;;;;;;4983019;28;20462;-89
2021/07/27 11:59:05;;;;;;;6.77;5.63;;;29.20;64.10;;;;;;4987273;28;20489;-89
2021/07/27 12:01:41;;;;;;;5.73;5.20;;;29.10;63.60;;;;;;4970616;28;20460;-88
2021/07/27 12:04:10;;;;;;;6.80;5.60;;;28.90;64.10;;;;;;4978472;28;20468;-88
2021/07/27 12:06:56;;;;;;;5.70;5.30;;;28.60;64.50;;;;;;4999494;28;20481;-90
2021/07/27 12:09:28;;;;;;;6.10;5.60;;;28.40;65.70;;;;;;4981496;28;20468;-91
2021/07/27 12:11:56;;;;;;;7.70;6.13;;;28.10;65.80;;;;;;4968295;28;20488;-91
2021/07/27 12:14:24;;;;;;;5.90;5.23;;;27.90;67.00;;;;;;5081260;23;20485;-91
2021/07/27 12:17:21;;;;;;;5.70;5.20;;;27.80;68.40;;;;;;4981271;28;20479;-92
2021/07/27 12:19:48;;;;;;;5.90;5.40;;;28.00;67.30;;;;;;4975143;28;20515;-92
2021/07/27 12:22:18;;;;;;;8.10;5.73;;;28.10;68.10;;;;;;4944977;29;20468;-85
2021/07/27 12:24:53;;;;;;;6.17;5.70;;;28.30;67.00;;;;;;4951649;29;20453;-86
2021/07/27 12:27:27;;;;;;;5.83;5.27;;;28.80;65.30;;;;;;4944473;29;20485;-88
2021/07/27 12:29:58;;;;;;;5.73;5.23;;;29.20;63.00;;;;;;4944606;29;20540;-90
2021/07/27 12:32:49;;;;;;;5.63;5.13;;;28.80;63.30;;;;;;4923968;29;20438;-87
2021/07/27 12:35:25;;;;;;;6.27;5.50;;;28.50;64.60;;;;;;4914838;29;20534;-85
2021/07/27 12:38:07;;;;;;;5.60;5.20;;;28.60;64.50;;;;;;4933353;29;20482;-88
2021/07/27 12:40:45;;;;;;;;;;;;;;;;;;;;;
2021/07/27 12:44:13;;;;;;;5.47;4.97;;;28.60;64.50;;;;;;4949331;29;20504;-86
2021/07/27 12:46:57;;;;;;;5.87;5.37;;;28.60;64.00;;;;;;4901614;29;20549;-86
2021/07/27 12:49:29;;;;;;;8.40;5.00;;;28.80;64.10;;;;;;4947030;29;20473;-86
2021/07/27 12:52:10;;;;;;;7.47;5.50;;;28.50;64.00;;;;;;4947339;29;20445;-87
2021/07/27 12:55:19;;;;;;;5.73;5.33;;;28.40;64.60;;;;;;4934195;29;20485;-89
2021/07/27 12:58:08;;;;;;;5.87;5.37;;;28.80;63.20;;;;;;4930167;29;20836;-87
2021/07/27 13:00:50;;;;;;;5.20;4.70;;;28.60;63.40;;;;;;4948111;29;20461;-87
2021/07/27 13:03:20;;;;;;;5.67;5.17;;;28.50;63.80;;;;;;4948866;29;20513;-87
2021/07/27 13:17:45;;;;;;;6.50;5.63;;;29.40;61.40;;;;;;4889430;29;21216;-86
2021/07/27 13:20:44;;;;;;;6.40;5.80;;;28.70;62.40;;;;;;4850540;29;20464;-90
2021/07/27 13:23:28;;;;;;;;;;;;;;;;;;;;;
2021/07/27 13:26:17;;;;;;;5.63;5.13;;;28.20;62.90;;;;;;4876146;29;20510;-85
2021/07/27 13:28:53;;;;;;;6.30;5.70;;;27.80;67.90;;;;;;4887940;29;20480;-88
2021/07/27 13:31:36;;;;;;;7.07;5.73;;;26.90;71.90;;;;;;4923877;29;20506;-87
2021/07/27 13:34:11;;;;;;;9.70;5.63;;;26.40;73.50;;;;;;4925786;29;20949;-87
2021/07/27 13:36:38;;;;;;;6.23;5.60;;;26.10;76.10;;;;;;4930653;29;20520;-86
2021/07/27 13:39:07;;;;;;;5.73;5.10;;;25.80;80.50;;;;;;4931141;29;20494;-87